sensor_id;sensor_type;location;lat;lon;timestamp;pressure;altitude;pressure_sealevel;temperature;humidity
50774;BME280;36745;48.544;8.918;2023-02-19T00:03:06;97884.22;;;10.39;80.84
50774;BME280;36745;48.544;8.918;2023-02-19T00:06:28;97879.06;;;10.41;81.08
50774;BME280;36745;48.544;8.918;2023-02-19T00:09:48;97888.53;;;10.40;80.87
50774;BME280;36745;48.544;8.918;2023-02-19T00:13:07;97877.50;;;10.40;80.95
50774;BME280;36745;48.544;8.918;2023-02-19T00:16:36;97874.53;;;10.31;81.82
50774;BME280;36745;48.544;8.918;2023-02-19T00:19:56;97886.84;;;10.27;82.14
50774;BME280;36745;48.544;8.918;2023-02-19T00:23:15;97885.22;;;10.29;81.76
50774;BME280;36745;48.544;8.918;2023-02-19T00:26:37;97870.38;;;10.23;82.41
50774;BME280;36745;48.544;8.918;2023-02-19T00:29:58;97872.72;;;10.25;82.55
50774;BME280;36745;48.544;8.918;2023-02-19T00:33:17;97873.84;;;10.27;82.39
50774;BME280;36745;48.544;8.918;2023-02-19T00:36:39;97871.84;;;10.28;82.22
50774;BME280;36745;48.544;8.918;2023-02-19T00:39:59;97870.75;;;10.25;82.79
50774;BME280;36745;48.544;8.918;2023-02-19T00:43:19;97871.56;;;10.22;82.54
50774;BME280;36745;48.544;8.918;2023-02-19T00:46:44;97859.78;;;10.22;82.90
50774;BME280;36745;48.544;8.918;2023-02-19T00:50:04;97867.25;;;10.21;82.82
50774;BME280;36745;48.544;8.918;2023-02-19T00:53:24;97874.63;;;10.28;83.11
50774;BME280;36745;48.544;8.918;2023-02-19T00:56:44;97881.97;;;10.34;82.93
50774;BME280;36745;48.544;8.918;2023-02-19T01:00:04;97885.09;;;10.36;82.93
50774;BME280;36745;48.544;8.918;2023-02-19T01:03:25;97881.81;;;10.41;82.91
50774;BME280;36745;48.544;8.918;2023-02-19T01:06:45;97879.78;;;10.45;82.85
50774;BME280;36745;48.544;8.918;2023-02-19T01:10:07;97879.41;;;10.43;82.87
50774;BME280;36745;48.544;8.918;2023-02-19T01:13:27;97873.19;;;10.39;83.05
50774;BME280;36745;48.544;8.918;2023-02-19T01:16:47;97873.19;;;10.39;83.15
50774;BME280;36745;48.544;8.918;2023-02-19T01:20:07;97857.53;;;10.36;82.98
50774;BME280;36745;48.544;8.918;2023-02-19T01:23:27;97852.75;;;10.37;83.25
50774;BME280;36745;48.544;8.918;2023-02-19T01:26:47;97865.22;;;10.45;83.23
50774;BME280;36745;48.544;8.918;2023-02-19T01:30:07;97864.28;;;10.51;83.07
50774;BME280;36745;48.544;8.918;2023-02-19T01:33:27;97871.34;;;10.52;83.22
50774;BME280;36745;48.544;8.918;2023-02-19T01:36:47;97869.06;;;10.47;83.11
50774;BME280;36745;48.544;8.918;2023-02-19T01:40:07;97855.66;;;10.49;83.30
50774;BME280;36745;48.544;8.918;2023-02-19T01:43:28;97850.16;;;10.49;83.26
50774;BME280;36745;48.544;8.918;2023-02-19T01:46:47;97840.75;;;10.47;83.54
50774;BME280;36745;48.544;8.918;2023-02-19T01:50:09;97844.06;;;10.38;83.79
50774;BME280;36745;48.544;8.918;2023-02-19T01:53:33;97847.69;;;10.35;83.97
50774;BME280;36745;48.544;8.918;2023-02-19T01:56:56;97838.22;;;10.36;84.23
50774;BME280;36745;48.544;8.918;2023-02-19T02:00:16;97837.00;;;10.37;84.23
50774;BME280;36745;48.544;8.918;2023-02-19T02:03:38;97834.63;;;10.39;84.14
50774;BME280;36745;48.544;8.918;2023-02-19T02:07:01;97841.03;;;10.33;84.57
50774;BME280;36745;48.544;8.918;2023-02-19T02:10:42;97827.34;;;10.29;84.11
50774;BME280;36745;48.544;8.918;2023-02-19T02:14:02;97849.91;;;10.24;84.44
50774;BME280;36745;48.544;8.918;2023-02-19T02:17:25;97844.28;;;10.08;84.66
50774;BME280;36745;48.544;8.918;2023-02-19T02:31:56;97835.47;;;9.97;85.27
50774;BME280;36745;48.544;8.918;2023-02-19T02:35:16;97842.44;;;10.01;85.48
50774;BME280;36745;48.544;8.918;2023-02-19T02:38:41;97841.31;;;9.99;85.30
50774;BME280;36745;48.544;8.918;2023-02-19T02:42:01;97821.06;;;10.09;85.06
50774;BME280;36745;48.544;8.918;2023-02-19T02:45:39;97829.75;;;10.07;84.94
50774;BME280;36745;48.544;8.918;2023-02-19T02:49:03;97823.44;;;10.07;84.87
50774;BME280;36745;48.544;8.918;2023-02-19T02:52:23;97815.19;;;10.07;84.82
50774;BME280;36745;48.544;8.918;2023-02-19T02:56:02;97816.19;;;9.97;84.85
50774;BME280;36745;48.544;8.918;2023-02-19T02:59:25;97809.97;;;9.93;84.89
50774;BME280;36745;48.544;8.918;2023-02-19T03:02:46;97801.00;;;9.89;84.93
50774;BME280;36745;48.544;8.918;2023-02-19T03:06:08;97796.47;;;9.79;84.86
50774;BME280;36745;48.544;8.918;2023-02-19T03:09:37;97801.28;;;9.75;85.40
50774;BME280;36745;48.544;8.918;2023-02-19T03:13:01;97798.44;;;9.78;85.02
50774;BME280;36745;48.544;8.918;2023-02-19T03:16:41;97803.66;;;9.73;84.94
50774;BME280;36745;48.544;8.918;2023-02-19T03:20:23;97798.59;;;9.71;85.31
50774;BME280;36745;48.544;8.918;2023-02-19T03:23:44;97794.91;;;9.78;85.06
50774;BME280;36745;48.544;8.918;2023-02-19T03:27:24;97795.78;;;9.75;85.49
50774;BME280;36745;48.544;8.918;2023-02-19T03:30:46;97799.09;;;9.86;85.43
50774;BME280;36745;48.544;8.918;2023-02-19T03:34:11;97802.91;;;9.92;85.20
50774;BME280;36745;48.544;8.918;2023-02-19T03:38:03;97801.72;;;9.93;85.07
50774;BME280;36745;48.544;8.918;2023-02-19T03:44:54;97801.84;;;9.86;85.07
50774;BME280;36745;48.544;8.918;2023-02-19T03:48:28;97808.19;;;9.83;85.40
50774;BME280;36745;48.544;8.918;2023-02-19T03:52:00;97807.34;;;9.86;85.35
50774;BME280;36745;48.544;8.918;2023-02-19T03:55:31;97805.78;;;9.85;85.15
50774;BME280;36745;48.544;8.918;2023-02-19T03:59:07;97805.94;;;9.78;85.35
50774;BME280;36745;48.544;8.918;2023-02-19T04:02:39;97813.28;;;9.64;85.77
50774;BME280;36745;48.544;8.918;2023-02-19T04:06:03;97818.66;;;9.72;85.46
50774;BME280;36745;48.544;8.918;2023-02-19T04:09:29;97807.16;;;9.77;85.37
50774;BME280;36745;48.544;8.918;2023-02-19T04:12:59;97818.66;;;9.72;85.32
50774;BME280;36745;48.544;8.918;2023-02-19T04:16:23;97813.19;;;9.68;85.21
50774;BME280;36745;48.544;8.918;2023-02-19T04:19:44;97819.47;;;9.68;85.67
50774;BME280;36745;48.544;8.918;2023-02-19T04:23:06;97824.16;;;9.72;85.97
50774;BME280;36745;48.544;8.918;2023-02-19T04:26:27;97823.50;;;9.64;85.75
50774;BME280;36745;48.544;8.918;2023-02-19T04:29:47;97824.81;;;9.56;86.48
50774;BME280;36745;48.544;8.918;2023-02-19T04:33:06;97827.53;;;9.59;85.70
50774;BME280;36745;48.544;8.918;2023-02-19T04:36:26;97835.06;;;9.55;86.15
50774;BME280;36745;48.544;8.918;2023-02-19T04:39:46;97834.16;;;9.62;86.37
50774;BME280;36745;48.544;8.918;2023-02-19T04:43:06;97849.53;;;9.59;86.57
50774;BME280;36745;48.544;8.918;2023-02-19T04:46:25;97857.38;;;9.61;86.56
50774;BME280;36745;48.544;8.918;2023-02-19T04:49:45;97843.34;;;9.55;86.52
50774;BME280;36745;48.544;8.918;2023-02-19T04:53:05;97844.75;;;9.63;86.70
50774;BME280;36745;48.544;8.918;2023-02-19T04:56:25;97858.91;;;9.62;86.41
50774;BME280;36745;48.544;8.918;2023-02-19T04:59:45;97862.47;;;9.62;86.47
50774;BME280;36745;48.544;8.918;2023-02-19T05:03:05;97867.25;;;9.58;86.71
50774;BME280;36745;48.544;8.918;2023-02-19T05:06:25;97863.78;;;9.54;86.82
50774;BME280;36745;48.544;8.918;2023-02-19T05:09:45;97866.88;;;9.56;87.01
50774;BME280;36745;48.544;8.918;2023-02-19T05:13:05;97858.22;;;9.58;87.04
50774;BME280;36745;48.544;8.918;2023-02-19T05:16:25;97861.63;;;9.42;87.56
50774;BME280;36745;48.544;8.918;2023-02-19T05:19:45;97873.50;;;9.39;87.85
50774;BME280;36745;48.544;8.918;2023-02-19T05:23:05;97870.69;;;9.43;87.39
50774;BME280;36745;48.544;8.918;2023-02-19T05:26:24;97875.03;;;9.40;87.64
50774;BME280;36745;48.544;8.918;2023-02-19T05:29:45;97872.66;;;9.42;87.42
50774;BME280;36745;48.544;8.918;2023-02-19T05:33:04;97877.44;;;9.38;87.64
50774;BME280;36745;48.544;8.918;2023-02-19T05:36:24;97893.94;;;9.38;87.83
50774;BME280;36745;48.544;8.918;2023-02-19T05:39:44;97885.22;;;9.43;87.66
50774;BME280;36745;48.544;8.918;2023-02-19T05:43:04;97888.44;;;9.38;88.01
50774;BME280;36745;48.544;8.918;2023-02-19T05:46:26;97887.53;;;9.45;87.66
50774;BME280;36745;48.544;8.918;2023-02-19T05:49:47;97895.53;;;9.36;86.89
50774;BME280;36745;48.544;8.918;2023-02-19T05:53:08;97887.69;;;9.34;86.95
50774;BME280;36745;48.544;8.918;2023-02-19T05:59:50;97892.50;;;9.30;86.68
50774;BME280;36745;48.544;8.918;2023-02-19T06:03:10;97907.72;;;9.38;86.63
50774;BME280;36745;48.544;8.918;2023-02-19T06:06:30;97908.91;;;9.37;85.87
50774;BME280;36745;48.544;8.918;2023-02-19T06:09:52;97901.13;;;9.32;85.78
50774;BME280;36745;48.544;8.918;2023-02-19T06:13:12;97907.44;;;9.29;86.08
50774;BME280;36745;48.544;8.918;2023-02-19T06:16:31;97908.19;;;9.33;85.98
50774;BME280;36745;48.544;8.918;2023-02-19T06:19:52;97926.59;;;9.36;86.25
50774;BME280;36745;48.544;8.918;2023-02-19T06:23:12;97934.03;;;9.39;85.67
50774;BME280;36745;48.544;8.918;2023-02-19T06:26:32;97938.75;;;9.39;85.53
50774;BME280;36745;48.544;8.918;2023-02-19T06:29:52;97939.53;;;9.39;85.40
50774;BME280;36745;48.544;8.918;2023-02-19T06:33:11;97950.66;;;9.32;86.14
50774;BME280;36745;48.544;8.918;2023-02-19T06:36:31;97958.78;;;9.39;85.70
50774;BME280;36745;48.544;8.918;2023-02-19T06:39:51;97969.34;;;9.44;85.72
50774;BME280;36745;48.544;8.918;2023-02-19T06:43:11;97992.38;;;9.27;85.42
50774;BME280;36745;48.544;8.918;2023-02-19T06:46:31;97977.28;;;9.12;85.75
50774;BME280;36745;48.544;8.918;2023-02-19T06:49:50;97984.00;;;9.07;85.72
50774;BME280;36745;48.544;8.918;2023-02-19T06:53:10;97992.09;;;9.18;86.03
50774;BME280;36745;48.544;8.918;2023-02-19T06:56:32;97995.22;;;9.20;86.25
50774;BME280;36745;48.544;8.918;2023-02-19T06:59:52;97998.81;;;9.17;86.11
50774;BME280;36745;48.544;8.918;2023-02-19T07:03:12;97989.03;;;9.12;86.18
50774;BME280;36745;48.544;8.918;2023-02-19T07:06:33;98007.06;;;9.17;86.31
50774;BME280;36745;48.544;8.918;2023-02-19T07:09:53;98002.75;;;9.16;85.84
50774;BME280;36745;48.544;8.918;2023-02-19T07:13:13;98009.91;;;9.10;85.76
50774;BME280;36745;48.544;8.918;2023-02-19T07:16:33;98008.34;;;9.09;86.08
50774;BME280;36745;48.544;8.918;2023-02-19T07:19:53;98021.75;;;9.07;85.97
50774;BME280;36745;48.544;8.918;2023-02-19T07:23:12;98024.13;;;9.05;84.96
50774;BME280;36745;48.544;8.918;2023-02-19T07:26:32;98032.44;;;8.98;84.53
50774;BME280;36745;48.544;8.918;2023-02-19T07:29:52;98026.22;;;8.94;84.61
50774;BME280;36745;48.544;8.918;2023-02-19T07:33:12;98032.91;;;8.93;84.35
50774;BME280;36745;48.544;8.918;2023-02-19T07:36:31;98035.97;;;8.98;84.08
50774;BME280;36745;48.544;8.918;2023-02-19T07:39:51;98048.56;;;8.99;83.79
50774;BME280;36745;48.544;8.918;2023-02-19T07:43:11;98036.69;;;9.06;83.66
50774;BME280;36745;48.544;8.918;2023-02-19T07:46:31;98038.28;;;9.03;83.50
50774;BME280;36745;48.544;8.918;2023-02-19T07:49:51;98049.97;;;9.11;83.26
50774;BME280;36745;48.544;8.918;2023-02-19T07:53:11;98044.75;;;9.20;83.73
50774;BME280;36745;48.544;8.918;2023-02-19T07:56:30;98055.75;;;9.20;83.13
50774;BME280;36745;48.544;8.918;2023-02-19T07:59:50;98058.41;;;9.27;82.74
50774;BME280;36745;48.544;8.918;2023-02-19T08:03:10;98062.81;;;9.21;82.75
50774;BME280;36745;48.544;8.918;2023-02-19T08:06:30;98064.00;;;9.20;83.10
50774;BME280;36745;48.544;8.918;2023-02-19T08:09:50;98070.22;;;9.24;82.21
50774;BME280;36745;48.544;8.918;2023-02-19T08:13:29;98072.50;;;9.29;82.29
50774;BME280;36745;48.544;8.918;2023-02-19T08:16:51;98077.38;;;9.18;81.61
50774;BME280;36745;48.544;8.918;2023-02-19T08:20:11;98084.88;;;9.17;82.05
50774;BME280;36745;48.544;8.918;2023-02-19T08:23:31;98075.47;;;9.15;82.34
50774;BME280;36745;48.544;8.918;2023-02-19T08:26:51;98077.38;;;9.18;82.41
50774;BME280;36745;48.544;8.918;2023-02-19T08:30:11;98082.06;;;9.21;82.31
50774;BME280;36745;48.544;8.918;2023-02-19T08:33:30;98088.38;;;9.18;82.78
50774;BME280;36745;48.544;8.918;2023-02-19T08:36:50;98099.38;;;9.18;82.85
50774;BME280;36745;48.544;8.918;2023-02-19T08:40:11;98097.00;;;9.20;82.70
50774;BME280;36745;48.544;8.918;2023-02-19T08:43:30;98104.44;;;9.23;82.26
50774;BME280;36745;48.544;8.918;2023-02-19T08:46:50;98093.06;;;9.21;82.26
50774;BME280;36745;48.544;8.918;2023-02-19T08:50:11;98100.13;;;9.22;82.42
50774;BME280;36745;48.544;8.918;2023-02-19T08:53:31;98107.09;;;9.30;82.31
50774;BME280;36745;48.544;8.918;2023-02-19T08:56:51;98111.88;;;9.26;82.12
50774;BME280;36745;48.544;8.918;2023-02-19T09:00:11;98121.03;;;9.16;81.79
50774;BME280;36745;48.544;8.918;2023-02-19T09:03:32;98126.41;;;9.26;82.27
50774;BME280;36745;48.544;8.918;2023-02-19T09:06:52;98125.53;;;9.33;82.02
50774;BME280;36745;48.544;8.918;2023-02-19T09:10:12;98126.69;;;9.36;81.20
50774;BME280;36745;48.544;8.918;2023-02-19T09:13:32;98127.41;;;9.40;81.49
50774;BME280;36745;48.544;8.918;2023-02-19T09:16:52;98134.94;;;9.36;81.51
50774;BME280;36745;48.544;8.918;2023-02-19T09:20:12;98138.66;;;9.22;81.31
50774;BME280;36745;48.544;8.918;2023-02-19T09:23:33;98144.97;;;9.19;81.67
50774;BME280;36745;48.544;8.918;2023-02-19T09:26:53;98152.34;;;9.25;81.43
50774;BME280;36745;48.544;8.918;2023-02-19T09:30:13;98142.50;;;9.28;81.89
50774;BME280;36745;48.544;8.918;2023-02-19T09:33:33;98151.69;;;9.48;82.05
50774;BME280;36745;48.544;8.918;2023-02-19T09:36:53;98151.59;;;9.55;82.20
50774;BME280;36745;48.544;8.918;2023-02-19T09:40:13;98154.66;;;9.61;81.79
50774;BME280;36745;48.544;8.918;2023-02-19T09:43:43;98153.78;;;9.67;82.11
50774;BME280;36745;48.544;8.918;2023-02-19T09:47:05;98163.69;;;9.61;81.37
50774;BME280;36745;48.544;8.918;2023-02-19T09:50:32;98176.19;;;9.69;81.45
50774;BME280;36745;48.544;8.918;2023-02-19T09:53:53;98180.13;;;9.68;81.02
50774;BME280;36745;48.544;8.918;2023-02-19T09:57:16;98179.72;;;9.70;80.78
50774;BME280;36745;48.544;8.918;2023-02-19T10:00:36;98179.84;;;9.59;80.29
50774;BME280;36745;48.544;8.918;2023-02-19T10:03:57;98186.09;;;9.63;80.39
50774;BME280;36745;48.544;8.918;2023-02-19T10:07:30;98189.22;;;9.65;79.94
50774;BME280;36745;48.544;8.918;2023-02-19T10:10:53;98195.47;;;9.69;80.31
50774;BME280;36745;48.544;8.918;2023-02-19T10:14:39;98192.31;;;9.67;80.26
50774;BME280;36745;48.544;8.918;2023-02-19T10:17:57;98194.09;;;9.51;79.98
50774;BME280;36745;48.544;8.918;2023-02-19T10:21:20;98206.00;;;9.44;80.83
50774;BME280;36745;48.544;8.918;2023-02-19T10:24:41;98194.22;;;9.40;81.71
50774;BME280;36745;48.544;8.918;2023-02-19T10:28:02;98193.50;;;9.36;81.87
50774;BME280;36745;48.544;8.918;2023-02-19T10:31:24;98201.69;;;9.43;81.95
50774;BME280;36745;48.544;8.918;2023-02-19T10:34:44;98201.16;;;9.55;82.50
50774;BME280;36745;48.544;8.918;2023-02-19T10:38:05;98204.63;;;9.59;82.58
50774;BME280;36745;48.544;8.918;2023-02-19T10:41:27;98198.66;;;9.64;83.20
50774;BME280;36745;48.544;8.918;2023-02-19T10:44:54;98210.22;;;9.83;82.91
50774;BME280;36745;48.544;8.918;2023-02-19T10:48:22;98207.78;;;9.88;82.58
50774;BME280;36745;48.544;8.918;2023-02-19T10:51:45;98218.22;;;9.74;82.02
50774;BME280;36745;48.544;8.918;2023-02-19T10:55:14;98219.69;;;9.82;81.98
50774;BME280;36745;48.544;8.918;2023-02-19T10:58:34;98213.28;;;9.88;82.24
50774;BME280;36745;48.544;8.918;2023-02-19T11:02:00;98206.91;;;9.95;81.70
50774;BME280;36745;48.544;8.918;2023-02-19T11:05:21;98212.63;;;9.81;80.47
50774;BME280;36745;48.544;8.918;2023-02-19T11:08:49;98217.34;;;9.80;80.23
50774;BME280;36745;48.544;8.918;2023-02-19T11:12:11;98206.34;;;9.80;78.92
50774;BME280;36745;48.544;8.918;2023-02-19T11:15:36;98200.56;;;9.71;77.79
50774;BME280;36745;48.544;8.918;2023-02-19T11:18:55;98205.31;;;9.67;77.90
50774;BME280;36745;48.544;8.918;2023-02-19T11:22:35;98217.56;;;9.62;77.52
50774;BME280;36745;48.544;8.918;2023-02-19T11:25:58;98195.91;;;9.64;76.78
50774;BME280;36745;48.544;8.918;2023-02-19T11:29:22;98201.03;;;9.62;76.36
50774;BME280;36745;48.544;8.918;2023-02-19T11:32:42;98207.84;;;9.54;74.96
50774;BME280;36745;48.544;8.918;2023-02-19T11:36:24;98195.25;;;9.53;74.91
50774;BME280;36745;48.544;8.918;2023-02-19T11:39:49;98193.94;;;9.65;75.36
50774;BME280;36745;48.544;8.918;2023-02-19T12:05:23;98201.53;;;9.88;71.75
50774;BME280;36745;48.544;8.918;2023-02-19T12:09:10;98209.41;;;9.86;71.07
50774;BME280;36745;48.544;8.918;2023-02-19T12:41:56;98223.13;;;9.89;72.23
50774;BME280;36745;48.544;8.918;2023-02-19T12:44:53;98204.28;;;9.88;71.90
50774;BME280;36745;48.544;8.918;2023-02-19T12:48:43;98187.47;;;9.79;72.57
50774;BME280;36745;48.544;8.918;2023-02-19T12:52:13;98199.63;;;9.81;72.70
50774;BME280;36745;48.544;8.918;2023-02-19T12:55:41;98181.59;;;9.77;72.46
50774;BME280;36745;48.544;8.918;2023-02-19T12:59:03;98182.06;;;9.72;72.62
50774;BME280;36745;48.544;8.918;2023-02-19T13:02:39;98182.06;;;9.72;72.51
50774;BME280;36745;48.544;8.918;2023-02-19T13:09:59;98165.97;;;9.97;71.64
50774;BME280;36745;48.544;8.918;2023-02-19T13:13:30;98163.56;;;9.99;71.22
50774;BME280;36745;48.544;8.918;2023-02-19T13:16:59;98148.13;;;10.05;70.78
50774;BME280;36745;48.544;8.918;2023-02-19T13:20:35;98141.69;;;10.15;68.81
50774;BME280;36745;48.544;8.918;2023-02-19T13:23:55;98148.03;;;10.39;69.85
50774;BME280;36745;48.544;8.918;2023-02-19T13:28:12;98152.28;;;10.67;68.22
50774;BME280;36745;48.544;8.918;2023-02-19T13:35:36;98142.75;;;10.71;67.83
50774;BME280;36745;48.544;8.918;2023-02-19T13:39:04;98154.81;;;10.58;66.58
50774;BME280;36745;48.544;8.918;2023-02-19T13:42:31;98160.06;;;10.48;67.45
50774;BME280;36745;48.544;8.918;2023-02-19T13:46:02;98158.06;;;10.52;67.05
50774;BME280;36745;48.544;8.918;2023-02-19T13:52:49;98169.50;;;10.51;66.31
50774;BME280;36745;48.544;8.918;2023-02-19T13:59:56;98172.47;;;10.37;66.24
50774;BME280;36745;48.544;8.918;2023-02-19T14:17:43;98171.38;;;10.04;66.86
50774;BME280;36745;48.544;8.918;2023-02-19T14:21:37;98170.78;;;9.89;66.92
50774;BME280;36745;48.544;8.918;2023-02-19T14:24:57;98182.66;;;9.86;68.91
50774;BME280;36745;48.544;8.918;2023-02-19T14:31:46;98181.81;;;9.89;70.15
50774;BME280;36745;48.544;8.918;2023-02-19T14:35:17;98187.75;;;9.88;70.04
50774;BME280;36745;48.544;8.918;2023-02-19T14:38:43;98202.75;;;9.83;70.51
50774;BME280;36745;48.544;8.918;2023-02-19T14:42:06;98208.72;;;9.78;70.37
50774;BME280;36745;48.544;8.918;2023-02-19T14:45:28;98211.91;;;9.77;70.91
50774;BME280;36745;48.544;8.918;2023-02-19T14:48:48;98208.72;;;9.78;71.45
50774;BME280;36745;48.544;8.918;2023-02-19T14:55:53;98217.91;;;9.98;72.10
50774;BME280;36745;48.544;8.918;2023-02-19T14:59:26;98204.56;;;9.93;71.62
50774;BME280;36745;48.544;8.918;2023-02-19T15:02:48;98203.81;;;9.93;72.17
50774;BME280;36745;48.544;8.918;2023-02-19T15:06:15;98211.91;;;9.77;72.09
50774;BME280;36745;48.544;8.918;2023-02-19T15:09:41;98210.28;;;9.79;72.30
50774;BME280;36745;48.544;8.918;2023-02-19T15:13:04;98217.22;;;9.91;72.61
50774;BME280;36745;48.544;8.918;2023-02-19T15:16:25;98214.03;;;9.92;72.80
50774;BME280;36745;48.544;8.918;2023-02-19T15:19:47;98221.78;;;10.01;72.77
50774;BME280;36745;48.544;8.918;2023-02-19T15:23:06;98215.41;;;10.07;72.75
50774;BME280;36745;48.544;8.918;2023-02-19T15:26:38;98223.34;;;10.02;72.60
50774;BME280;36745;48.544;8.918;2023-02-19T15:30:01;98232.00;;;10.04;72.98
50774;BME280;36745;48.544;8.918;2023-02-19T15:33:20;98234.78;;;10.00;72.75
50774;BME280;36745;48.544;8.918;2023-02-19T15:36:40;98244.66;;;9.98;72.98
50774;BME280;36745;48.544;8.918;2023-02-19T15:40:04;98244.66;;;9.98;73.38
50774;BME280;36745;48.544;8.918;2023-02-19T15:43:42;98249.34;;;10.01;73.08
50774;BME280;36745;48.544;8.918;2023-02-19T15:47:51;98246.31;;;9.92;73.60
50774;BME280;36745;48.544;8.918;2023-02-19T15:51:14;98246.19;;;9.99;73.86
50774;BME280;36745;48.544;8.918;2023-02-19T15:54:54;98251.81;;;9.92;74.01
50774;BME280;36745;48.544;8.918;2023-02-19T16:01:42;98266.78;;;9.91;74.46
50774;BME280;36745;48.544;8.918;2023-02-19T16:05:10;98266.84;;;9.84;74.74
50774;BME280;36745;48.544;8.918;2023-02-19T16:08:41;98258.31;;;9.75;75.00
50774;BME280;36745;48.544;8.918;2023-02-19T16:12:28;98249.00;;;9.65;75.88
50774;BME280;36745;48.544;8.918;2023-02-19T16:15:56;98245.09;;;9.62;77.30
50774;BME280;36745;48.544;8.918;2023-02-19T16:19:27;98254.91;;;9.63;76.68
50774;BME280;36745;48.544;8.918;2023-02-19T16:22:48;98269.47;;;9.64;77.21
50774;BME280;36745;48.544;8.918;2023-02-19T16:26:09;98278.09;;;9.66;77.00
50774;BME280;36745;48.544;8.918;2023-02-19T16:29:30;98276.75;;;9.78;76.25
50774;BME280;36745;48.544;8.918;2023-02-19T16:36:50;98274.13;;;9.67;76.09
50774;BME280;36745;48.544;8.918;2023-02-19T16:43:40;98276.00;;;9.43;77.26
50774;BME280;36745;48.544;8.918;2023-02-19T16:47:05;98275.94;;;9.47;76.86
50774;BME280;36745;48.544;8.918;2023-02-19T16:50:29;98269.41;;;9.34;77.25
50774;BME280;36745;48.544;8.918;2023-02-19T16:53:49;98257.31;;;9.24;77.99
50774;BME280;36745;48.544;8.918;2023-02-19T16:57:09;98260.50;;;9.19;78.41
50774;BME280;36745;48.544;8.918;2023-02-19T17:00:30;98257.25;;;9.31;77.60
50774;BME280;36745;48.544;8.918;2023-02-19T17:03:50;98262.78;;;9.27;77.72
50774;BME280;36745;48.544;8.918;2023-02-19T17:07:13;98262.75;;;9.31;77.25
50774;BME280;36745;48.544;8.918;2023-02-19T17:10:34;98269.94;;;9.18;77.18
50774;BME280;36745;48.544;8.918;2023-02-19T17:13:53;98266.78;;;9.23;77.00
50774;BME280;36745;48.544;8.918;2023-02-19T17:17:13;98271.44;;;9.26;76.79
50774;BME280;36745;48.544;8.918;2023-02-19T17:20:34;98270.66;;;9.25;76.74
50774;BME280;36745;48.544;8.918;2023-02-19T17:23:55;98284.84;;;9.20;77.00
50774;BME280;36745;48.544;8.918;2023-02-19T17:27:15;98299.06;;;9.15;77.19
50774;BME280;36745;48.544;8.918;2023-02-19T17:30:35;98318.22;;;9.26;77.18
50774;BME280;36745;48.544;8.918;2023-02-19T17:33:55;98318.25;;;9.22;77.20
50774;BME280;36745;48.544;8.918;2023-02-19T17:37:18;98298.28;;;9.15;78.20
50774;BME280;36745;48.544;8.918;2023-02-19T17:40:38;98299.16;;;9.05;78.35
50774;BME280;36745;48.544;8.918;2023-02-19T17:43:58;98301.69;;;8.81;77.65
50774;BME280;36745;48.544;8.918;2023-02-19T17:47:19;98305.69;;;8.73;77.61
50774;BME280;36745;48.544;8.918;2023-02-19T17:50:39;98323.72;;;8.78;78.32
50774;BME280;36745;48.544;8.918;2023-02-19T17:53:59;98323.75;;;8.74;78.32
50774;BME280;36745;48.544;8.918;2023-02-19T17:57:19;98330.31;;;8.88;78.35
50774;BME280;36745;48.544;8.918;2023-02-19T18:00:39;98327.69;;;8.70;79.21
50774;BME280;36745;48.544;8.918;2023-02-19T18:03:58;98332.81;;;8.64;79.57
50774;BME280;36745;48.544;8.918;2023-02-19T18:07:18;98339.84;;;8.72;78.99
50774;BME280;36745;48.544;8.918;2023-02-19T18:10:38;98341.94;;;8.58;80.34
50774;BME280;36745;48.544;8.918;2023-02-19T18:13:57;98358.03;;;8.56;81.66
50774;BME280;36745;48.544;8.918;2023-02-19T18:17:18;98369.03;;;8.52;81.86
50774;BME280;36745;48.544;8.918;2023-02-19T18:20:38;98385.44;;;8.66;80.83
50774;BME280;36745;48.544;8.918;2023-02-19T18:23:58;98383.50;;;8.60;81.44
50774;BME280;36745;48.544;8.918;2023-02-19T18:27:18;98394.97;;;8.51;82.51
50774;BME280;36745;48.544;8.918;2023-02-19T18:30:38;98400.84;;;8.50;82.48
50774;BME280;36745;48.544;8.918;2023-02-19T18:33:58;98397.72;;;8.44;83.58
50774;BME280;36745;48.544;8.918;2023-02-19T18:37:19;98398.13;;;8.42;84.16
50774;BME280;36745;48.544;8.918;2023-02-19T18:40:38;98401.66;;;8.43;84.24
50774;BME280;36745;48.544;8.918;2023-02-19T18:43:58;98394.63;;;8.42;83.90
50774;BME280;36745;48.544;8.918;2023-02-19T18:47:19;98389.16;;;8.35;84.64
50774;BME280;36745;48.544;8.918;2023-02-19T18:50:39;98393.84;;;8.34;84.92
50774;BME280;36745;48.544;8.918;2023-02-19T18:53:59;98396.63;;;8.31;85.29
50774;BME280;36745;48.544;8.918;2023-02-19T18:57:22;98399.75;;;8.33;85.06
50774;BME280;36745;48.544;8.918;2023-02-19T19:00:42;98401.72;;;8.36;85.28
50774;BME280;36745;48.544;8.918;2023-02-19T19:04:02;98400.13;;;8.31;86.26
50774;BME280;36745;48.544;8.918;2023-02-19T19:07:22;98397.00;;;8.29;85.78
50774;BME280;36745;48.544;8.918;2023-02-19T19:10:42;98393.06;;;8.34;85.39
50774;BME280;36745;48.544;8.918;2023-02-19T19:14:02;98398.94;;;8.29;86.49
50774;BME280;36745;48.544;8.918;2023-02-19T19:17:22;98403.25;;;8.26;86.57
50774;BME280;36745;48.544;8.918;2023-02-19T19:20:42;98416.63;;;8.24;86.98
50774;BME280;36745;48.544;8.918;2023-02-19T19:24:02;98416.25;;;8.19;87.11
50774;BME280;36745;48.544;8.918;2023-02-19T19:27:21;98419.38;;;8.21;87.34
50774;BME280;36745;48.544;8.918;2023-02-19T19:30:41;98416.63;;;8.21;86.73
50774;BME280;36745;48.544;8.918;2023-02-19T19:34:02;98430.78;;;8.19;87.58
50774;BME280;36745;48.544;8.918;2023-02-19T19:37:22;98433.16;;;8.14;87.72
50774;BME280;36745;48.544;8.918;2023-02-19T19:40:42;98427.66;;;8.10;88.17
50774;BME280;36745;48.544;8.918;2023-02-19T19:44:06;98420.59;;;8.06;88.50
50774;BME280;36745;48.544;8.918;2023-02-19T19:47:25;98433.56;;;8.09;88.46
50774;BME280;36745;48.544;8.918;2023-02-19T19:50:45;98435.50;;;8.08;88.81
50774;BME280;36745;48.544;8.918;2023-02-19T19:54:05;98441.78;;;8.05;88.37
50774;BME280;36745;48.544;8.918;2023-02-19T19:57:24;98445.72;;;8.04;87.87
50774;BME280;36745;48.544;8.918;2023-02-19T20:00:44;98434.72;;;8.00;87.95
50774;BME280;36745;48.544;8.918;2023-02-19T20:04:04;98447.28;;;8.01;88.35
50774;BME280;36745;48.544;8.918;2023-02-19T20:07:24;98457.09;;;7.99;88.73